createdAt,value
2017-01-25T00:00:10.111Z,99.99
2017-01-25T00:01:10.097Z,99.99
2017-01-25T00:02:10.110Z,99.99
2017-01-25T00:03:10.129Z,99.99
2017-01-25T00:04:10.143Z,99.99
2017-01-25T00:05:10.183Z,99.99
2017-01-25T00:06:10.176Z,99.99
2017-01-25T00:07:10.187Z,99.99
2017-01-25T00:08:10.204Z,99.99
2017-01-25T00:09:10.217Z,99.99
2017-01-25T00:11:10.249Z,99.99
2017-01-25T00:12:10.268Z,99.99
2017-01-25T00:13:10.281Z,99.99
2017-01-25T00:14:25.215Z,99.99
2017-01-25T00:15:10.312Z,99.99
2017-01-25T00:16:10.326Z,99.99
2017-01-25T00:17:10.342Z,99.99
2017-01-25T00:18:10.357Z,99.99
2017-01-25T00:19:10.372Z,99.99
2017-01-25T00:20:10.388Z,99.99
2017-01-25T00:21:10.403Z,99.99
2017-01-25T00:22:10.418Z,99.99
2017-01-25T00:23:10.436Z,99.99
2017-01-25T00:24:10.449Z,99.99
2017-01-25T00:25:10.463Z,99.99
2017-01-25T00:26:10.481Z,99.99
2017-01-25T00:27:10.495Z,99.99
2017-01-25T00:28:10.510Z,99.99
2017-01-25T00:29:10.525Z,99.99
2017-01-25T00:30:10.541Z,99.99
2017-01-25T00:31:10.560Z,99.99
2017-01-25T00:32:10.572Z,99.99
2017-01-25T00:33:10.587Z,99.99
2017-01-25T00:34:10.602Z,99.99
2017-01-25T00:35:10.616Z,99.99
2017-01-25T00:36:10.635Z,99.99
2017-01-25T00:37:10.650Z,99.99
2017-01-25T00:38:10.664Z,99.99
2017-01-25T00:39:10.679Z,99.99
2017-01-25T00:40:10.694Z,99.99
2017-01-25T00:43:10.741Z,99.99
2017-01-25T00:44:10.755Z,99.99
2017-01-25T00:45:10.771Z,99.99
2017-01-25T00:46:25.704Z,99.99
2017-01-25T00:47:10.800Z,99.99
2017-01-25T00:48:10.817Z,99.99
2017-01-25T00:49:10.832Z,99.99
2017-01-25T00:50:10.847Z,99.99
2017-01-25T00:51:10.862Z,99.99
2017-01-25T00:52:10.877Z,99.99
2017-01-25T00:53:10.893Z,99.99
2017-01-25T00:54:10.911Z,99.99
2017-01-25T00:55:10.923Z,99.99
2017-01-25T00:56:10.942Z,99.99
2017-01-25T00:58:10.970Z,99.99
2017-01-25T00:59:10.986Z,99.99
2017-01-25T01:00:11.001Z,99.99
2017-01-25T01:01:11.016Z,99.99
2017-01-25T01:02:25.949Z,99.99
2017-01-25T01:03:11.046Z,99.99
2017-01-25T01:04:11.062Z,99.99
2017-01-25T01:05:11.077Z,99.99
2017-01-25T01:06:11.095Z,99.99
2017-01-25T01:07:11.106Z,99.99
2017-01-25T01:08:11.127Z,99.99
2017-01-25T01:09:11.138Z,99.99
2017-01-25T01:10:11.154Z,99.99
2017-01-25T01:11:11.169Z,99.99
2017-01-25T01:12:11.186Z,99.99
2017-01-25T01:13:11.200Z,99.99
2017-01-25T01:14:11.215Z,99.99
2017-01-25T01:15:11.229Z,99.99
2017-01-25T01:16:11.246Z,99.99
2017-01-25T01:17:11.260Z,99.99
2017-01-25T01:18:26.193Z,99.99
2017-01-25T01:19:11.290Z,99.99
2017-01-25T01:20:11.303Z,99.99
2017-01-25T01:21:11.322Z,99.99
2017-01-25T01:22:11.334Z,99.99
2017-01-25T01:23:11.354Z,99.99
2017-01-25T01:24:11.364Z,99.99
2017-01-25T01:25:11.381Z,99.99
2017-01-25T01:26:11.396Z,99.99
2017-01-25T01:27:11.411Z,99.99
2017-01-25T01:28:11.427Z,99.99
2017-01-25T01:29:11.837Z,99.99
2017-01-25T01:30:11.457Z,99.99
2017-01-25T01:31:11.472Z,99.99
2017-01-25T01:32:11.488Z,99.99
2017-01-25T01:33:11.501Z,99.99
2017-01-25T01:34:26.435Z,99.99
2017-01-25T01:35:11.532Z,99.99
2017-01-25T01:36:11.565Z,99.99
2017-01-25T01:37:11.562Z,99.99
2017-01-25T01:38:11.579Z,99.99
2017-01-25T01:39:11.595Z,99.99
2017-01-25T01:40:11.632Z,99.99
2017-01-25T01:41:11.626Z,99.99
2017-01-25T01:42:11.639Z,99.99
2017-01-25T01:43:11.673Z,99.99
2017-01-25T01:44:11.668Z,99.99
2017-01-25T01:45:11.691Z,99.99
2017-01-25T01:46:11.699Z,99.99
2017-01-25T01:47:11.716Z,99.99
2017-01-25T01:48:11.732Z,99.99
2017-01-25T01:49:26.664Z,99.99
2017-01-25T01:50:11.768Z,99.99
2017-01-25T01:51:11.775Z,99.99
2017-01-25T01:52:11.792Z,99.99
2017-01-25T01:53:11.806Z,99.99
2017-01-25T01:54:11.821Z,99.99
2017-01-25T01:55:11.837Z,99.99
2017-01-25T01:56:11.851Z,99.99
2017-01-25T01:57:11.871Z,99.99
2017-01-25T01:58:11.901Z,99.99
2017-01-25T01:59:11.920Z,99.99
2017-01-25T02:03:11.958Z,99.99
2017-01-25T02:04:11.971Z,99.99
2017-01-25T02:05:11.988Z,99.99
2017-01-25T02:06:12.002Z,99.99
2017-01-25T02:07:12.018Z,99.99
2017-01-25T02:08:12.031Z,99.99
2017-01-25T02:09:12.049Z,99.99
2017-01-25T02:10:12.063Z,99.99
2017-01-25T02:11:12.080Z,99.99
2017-01-25T02:12:12.095Z,99.99
2017-01-25T02:13:12.108Z,99.99
2017-01-25T02:14:12.150Z,99.99
2017-01-25T02:15:12.138Z,99.99
2017-01-25T02:17:12.168Z,99.99
2017-01-25T02:18:12.187Z,99.99
2017-01-25T02:19:12.200Z,99.99
2017-01-25T02:20:12.214Z,99.99
2017-01-25T02:21:27.147Z,99.99
2017-01-25T02:22:12.244Z,99.99
2017-01-25T02:23:12.262Z,99.99
2017-01-25T02:24:12.275Z,99.99
2017-01-25T02:25:12.291Z,99.99
2017-01-25T02:26:12.306Z,99.99
2017-01-25T02:27:12.321Z,99.99
2017-01-25T02:28:12.336Z,99.99
2017-01-25T02:29:12.352Z,99.99
2017-01-25T02:30:12.367Z,99.99
2017-01-25T02:31:12.386Z,99.99
2017-01-25T02:32:12.404Z,99.99
2017-01-25T02:33:12.413Z,99.99
2017-01-25T02:34:12.433Z,99.99
2017-01-25T02:35:12.463Z,99.99
2017-01-25T02:36:12.458Z,99.99
2017-01-25T02:37:27.391Z,99.99
2017-01-25T02:38:12.490Z,99.99
2017-01-25T02:39:12.502Z,99.99
2017-01-25T02:40:12.517Z,99.99
2017-01-25T02:41:12.534Z,99.99
2017-01-25T02:42:12.549Z,99.99
2017-01-25T02:43:12.587Z,99.99
2017-01-25T02:44:12.580Z,99.99
2017-01-25T02:45:12.594Z,99.99
2017-01-25T02:46:12.610Z,99.99
2017-01-25T02:49:12.660Z,99.99
2017-01-25T02:51:12.687Z,99.99
2017-01-25T02:52:12.704Z,99.99
2017-01-25T02:53:27.633Z,99.99
2017-01-25T02:54:12.754Z,99.99
2017-01-25T02:55:12.747Z,99.99
2017-01-25T02:56:12.763Z,99.99
2017-01-25T02:57:12.783Z,99.99
2017-01-25T02:58:12.792Z,99.99
2017-01-25T02:59:12.813Z,99.99
2017-01-25T03:00:12.827Z,99.99
2017-01-25T03:02:12.854Z,99.99
2017-01-25T03:03:12.868Z,99.99
2017-01-25T03:05:12.901Z,99.99
2017-01-25T03:06:12.915Z,99.99
2017-01-25T03:07:12.932Z,99.99
2017-01-25T03:08:12.951Z,99.99
2017-01-25T03:09:27.879Z,99.99
2017-01-25T03:10:12.976Z,99.99
2017-01-25T03:11:12.994Z,99.99
2017-01-25T03:12:13.008Z,99.99
2017-01-25T03:13:13.022Z,99.99
2017-01-25T03:14:13.038Z,99.99
2017-01-25T03:15:13.054Z,99.99
2017-01-25T03:16:13.067Z,99.99
2017-01-25T03:17:13.084Z,99.99
2017-01-25T03:18:13.099Z,99.99
2017-01-25T03:19:13.111Z,99.99
2017-01-25T03:20:13.128Z,99.99
2017-01-25T03:22:13.163Z,99.99
2017-01-25T03:23:13.176Z,99.99
2017-01-25T03:24:28.110Z,99.99
2017-01-25T03:25:13.209Z,99.99
2017-01-25T03:26:13.226Z,99.99
2017-01-25T03:27:13.237Z,99.99
2017-01-25T03:28:13.252Z,99.99
2017-01-25T03:29:13.269Z,99.99
2017-01-25T03:30:13.286Z,99.99
2017-01-25T03:31:13.299Z,99.99
2017-01-25T03:32:13.318Z,99.99
2017-01-25T03:34:13.344Z,99.99
2017-01-25T03:35:13.359Z,99.99
2017-01-25T03:36:13.378Z,99.99
2017-01-25T03:37:13.392Z,99.99
2017-01-25T03:38:13.407Z,99.99
2017-01-25T03:39:13.428Z,99.99
2017-01-25T03:40:13.441Z,99.99
2017-01-25T03:41:13.452Z,99.99
2017-01-25T03:42:13.469Z,99.99
2017-01-25T03:43:13.483Z,99.99
2017-01-25T03:44:13.499Z,99.99
2017-01-25T03:45:13.535Z,99.99
2017-01-25T03:46:13.531Z,99.99
2017-01-25T03:47:13.547Z,99.99
2017-01-25T03:48:13.563Z,99.99
2017-01-25T03:49:13.600Z,99.99
2017-01-25T03:51:13.606Z,99.99
2017-01-25T03:53:13.637Z,99.99
2017-01-25T03:54:13.654Z,99.99
2017-01-25T03:55:13.669Z,99.99
2017-01-25T03:56:28.602Z,99.99
2017-01-25T03:57:13.700Z,99.99
2017-01-25T03:58:13.715Z,99.99
2017-01-25T03:59:13.731Z,99.99
2017-01-25T04:00:13.746Z,99.99
2017-01-25T04:01:13.760Z,99.99
2017-01-25T04:02:13.777Z,99.99
2017-01-25T04:03:13.794Z,99.99
2017-01-25T04:04:13.806Z,99.99
2017-01-25T04:05:13.824Z,99.99
2017-01-25T04:06:13.841Z,99.99
2017-01-25T04:07:13.859Z,99.99
2017-01-25T04:08:13.872Z,99.99
2017-01-25T04:09:13.885Z,99.99
2017-01-25T04:10:13.899Z,99.99
2017-01-25T04:11:13.928Z,99.99
2017-01-25T04:12:28.848Z,99.99
2017-01-25T04:13:13.948Z,99.99
2017-01-25T04:14:13.960Z,99.99
2017-01-25T04:15:13.977Z,99.99
2017-01-25T04:16:13.993Z,99.99
2017-01-25T04:17:14.008Z,99.99
2017-01-25T04:18:14.021Z,99.99
2017-01-25T04:19:14.037Z,99.99
2017-01-25T04:20:14.056Z,99.99
2017-01-25T04:21:14.075Z,99.99
2017-01-25T04:22:14.086Z,99.99
2017-01-25T04:23:14.098Z,99.99
2017-01-25T04:24:14.116Z,99.99
2017-01-25T04:26:14.143Z,99.99
2017-01-25T04:27:14.158Z,99.99
2017-01-25T04:28:29.092Z,99.99
2017-01-25T04:29:14.189Z,99.99
2017-01-25T04:30:14.205Z,99.99
2017-01-25T04:31:14.226Z,99.99
2017-01-25T04:32:14.236Z,99.99
2017-01-25T04:33:14.273Z,99.99
2017-01-25T04:34:14.277Z,99.99
2017-01-25T04:35:14.281Z,99.99
2017-01-25T04:36:14.295Z,99.99
2017-01-25T04:37:14.311Z,99.99
2017-01-25T04:38:14.325Z,99.99
2017-01-25T04:39:14.341Z,99.99
2017-01-25T04:40:14.358Z,99.99
2017-01-25T04:41:14.374Z,99.99
2017-01-25T04:42:14.386Z,99.99
2017-01-25T04:43:14.401Z,99.99
2017-01-25T04:44:29.338Z,99.99
2017-01-25T04:45:14.432Z,99.99
2017-01-25T04:46:14.449Z,99.99
2017-01-25T04:47:14.460Z,99.99
2017-01-25T04:48:14.476Z,99.99
2017-01-25T04:49:14.495Z,99.99
2017-01-25T04:50:14.507Z,99.99
2017-01-25T04:51:14.527Z,99.99
2017-01-25T04:52:14.540Z,99.99
2017-01-25T04:53:14.554Z,99.99
2017-01-25T04:54:14.593Z,99.99
2017-01-25T04:55:14.584Z,99.99
2017-01-25T04:57:14.614Z,99.99
2017-01-25T04:58:14.629Z,99.99
2017-01-25T04:59:29.564Z,99.99
2017-01-25T05:00:14.661Z,99.99
2017-01-25T05:01:14.676Z,99.99
2017-01-25T05:02:14.694Z,99.99
2017-01-25T05:03:14.707Z,99.99
2017-01-25T05:04:14.721Z,99.99
2017-01-25T05:05:14.739Z,99.99
2017-01-25T05:06:14.753Z,99.99
2017-01-25T05:07:14.779Z,99.99
2017-01-25T05:08:14.783Z,99.99
2017-01-25T05:09:14.801Z,99.99
2017-01-25T05:11:14.853Z,99.99
2017-01-25T05:13:14.861Z,99.99
2017-01-25T05:14:14.874Z,99.99
2017-01-25T05:15:14.891Z,99.99
2017-01-25T05:16:14.908Z,99.99
2017-01-25T05:17:14.921Z,99.99
2017-01-25T05:18:14.936Z,99.99
2017-01-25T05:19:14.955Z,99.99
2017-01-25T05:20:14.970Z,99.99
2017-01-25T05:21:14.981Z,99.99
2017-01-25T05:22:14.998Z,99.99
2017-01-25T05:24:15.029Z,99.99
2017-01-25T05:25:15.044Z,99.99
2017-01-25T05:27:15.076Z,99.99
2017-01-25T05:28:15.089Z,99.99
2017-01-25T05:29:15.107Z,99.99
2017-01-25T05:30:15.121Z,99.99
2017-01-25T05:31:30.055Z,99.99
2017-01-25T05:32:15.151Z,99.99
2017-01-25T05:33:15.166Z,99.99
2017-01-25T05:34:15.180Z,99.99
2017-01-25T05:35:15.198Z,99.99
2017-01-25T05:36:15.213Z,99.99
2017-01-25T05:37:15.226Z,99.99
2017-01-25T05:38:15.241Z,99.99
2017-01-25T05:40:15.273Z,99.99
2017-01-25T05:41:15.289Z,99.99
2017-01-25T05:42:15.304Z,99.99
2017-01-25T05:43:15.321Z,99.99
2017-01-25T05:44:15.342Z,99.99
2017-01-25T05:45:15.348Z,99.99
2017-01-25T05:46:15.366Z,99.99
2017-01-25T05:47:30.298Z,99.99
2017-01-25T05:48:15.398Z,99.99
2017-01-25T05:49:15.411Z,99.99
2017-01-25T05:50:15.424Z,99.99
2017-01-25T05:51:15.441Z,99.99
2017-01-25T05:52:15.462Z,99.99
2017-01-25T05:53:15.472Z,99.99
2017-01-25T05:54:15.488Z,99.99
2017-01-25T05:55:15.502Z,99.99
2017-01-25T05:56:15.518Z,99.99
2017-01-25T05:57:15.535Z,99.99
2017-01-25T05:58:15.552Z,99.99
2017-01-25T05:59:15.567Z,99.99
2017-01-25T06:00:15.580Z,99.99
2017-01-25T06:01:15.593Z,99.99
2017-01-25T06:02:15.611Z,99.99
2017-01-25T06:03:30.541Z,99.99
2017-01-25T06:04:15.642Z,99.99
2017-01-25T06:05:15.656Z,99.99
2017-01-25T06:06:15.669Z,99.99
2017-01-25T06:07:15.685Z,99.99
2017-01-25T06:08:15.702Z,99.99
2017-01-25T06:09:15.715Z,99.99
2017-01-25T06:10:15.732Z,99.99
2017-01-25T06:11:15.746Z,99.99
2017-01-25T06:12:15.761Z,99.99
2017-01-25T06:13:15.782Z,99.99
2017-01-25T06:14:15.791Z,99.99
2017-01-25T06:16:15.824Z,99.99
2017-01-25T06:17:15.838Z,99.99
2017-01-25T06:18:15.853Z,99.99
2017-01-25T06:19:30.787Z,99.99
2017-01-25T06:20:15.887Z,99.99
2017-01-25T06:21:15.899Z,99.99
2017-01-25T06:22:15.913Z,99.99
2017-01-25T06:23:15.931Z,99.99
2017-01-25T06:24:15.946Z,99.99
2017-01-25T06:25:15.960Z,99.99
2017-01-25T06:26:15.973Z,99.99
2017-01-25T06:27:15.993Z,99.99
2017-01-25T06:28:16.005Z,99.99
2017-01-25T06:29:16.021Z,99.99
2017-01-25T06:30:16.035Z,99.99
2017-01-25T06:31:16.052Z,99.99
2017-01-25T06:32:16.070Z,99.99
2017-01-25T06:33:16.083Z,99.99
2017-01-25T06:34:31.016Z,99.99
2017-01-25T06:35:16.114Z,99.99
2017-01-25T06:36:16.128Z,99.99
2017-01-25T06:37:16.144Z,99.99
2017-01-25T06:38:16.159Z,99.99
2017-01-25T06:39:16.174Z,99.99
2017-01-25T06:40:16.194Z,99.99
2017-01-25T06:41:16.204Z,99.99
2017-01-25T06:42:16.220Z,99.99
2017-01-25T06:43:16.237Z,99.99
2017-01-25T06:44:16.252Z,99.99
2017-01-25T06:45:16.265Z,99.99
2017-01-25T06:46:16.282Z,99.99
2017-01-25T06:48:16.313Z,99.99
2017-01-25T06:49:16.325Z,99.99
2017-01-25T06:50:16.342Z,99.99
2017-01-25T06:51:16.359Z,99.99
2017-01-25T06:52:16.373Z,99.99
2017-01-25T06:53:16.387Z,99.99
2017-01-25T06:54:16.404Z,99.99
2017-01-25T06:55:16.418Z,99.99
2017-01-25T06:56:16.435Z,99.99
2017-01-25T06:57:16.449Z,99.99
2017-01-25T06:58:16.465Z,99.99
2017-01-25T07:00:16.495Z,99.99
2017-01-25T07:02:16.547Z,99.99
2017-01-25T07:03:16.541Z,99.99
2017-01-25T07:04:16.556Z,99.99
2017-01-25T07:05:16.571Z,99.99
2017-01-25T07:06:31.504Z,99.99
2017-01-25T07:07:16.601Z,99.99
2017-01-25T07:08:16.616Z,99.99
2017-01-25T07:09:16.630Z,99.99
2017-01-25T07:10:16.647Z,99.99
2017-01-25T07:11:16.664Z,99.99
2017-01-25T07:12:16.676Z,99.99
2017-01-25T07:13:16.699Z,99.99
2017-01-25T07:14:16.706Z,99.99
2017-01-25T07:15:16.721Z,99.99
2017-01-25T07:16:16.735Z,99.99
2017-01-25T07:17:16.754Z,99.99
2017-01-25T07:18:16.767Z,99.99
2017-01-25T07:19:16.785Z,99.99
2017-01-25T07:20:16.797Z,99.99
2017-01-25T07:21:16.811Z,99.99
2017-01-25T07:22:31.747Z,99.99
2017-01-25T07:23:16.864Z,99.99
2017-01-25T07:24:16.858Z,99.99
2017-01-25T07:25:16.874Z,99.99
2017-01-25T07:26:16.889Z,99.99
2017-01-25T07:27:16.903Z,99.99
2017-01-25T07:28:16.921Z,99.99
2017-01-25T07:29:16.934Z,99.99
2017-01-25T07:30:16.950Z,99.99
2017-01-25T07:31:16.964Z,99.99
2017-01-25T07:35:17.025Z,99.99
2017-01-25T07:36:17.041Z,99.99
2017-01-25T07:37:17.055Z,99.99
2017-01-25T07:38:31.987Z,99.99
2017-01-25T07:39:17.089Z,99.99
2017-01-25T07:40:17.107Z,99.99
2017-01-25T07:41:17.117Z,99.99
2017-01-25T07:42:17.132Z,99.99
2017-01-25T07:43:17.151Z,99.99
2017-01-25T07:44:17.161Z,99.99
2017-01-25T07:45:17.177Z,99.99
2017-01-25T07:46:17.193Z,99.99
2017-01-25T07:47:17.206Z,99.99
2017-01-25T07:48:17.223Z,99.99
2017-01-25T07:49:17.236Z,99.99
2017-01-25T07:50:17.251Z,99.99
2017-01-25T07:51:17.271Z,99.99
2017-01-25T07:52:17.284Z,99.99
2017-01-25T07:53:17.300Z,99.99
2017-01-25T07:54:32.231Z,99.99
2017-01-25T07:55:17.327Z,99.99
2017-01-25T07:56:17.349Z,99.99
2017-01-25T07:57:17.359Z,99.99
2017-01-25T07:58:17.373Z,99.99
2017-01-25T07:59:17.389Z,99.99
2017-01-25T08:00:17.403Z,99.99
2017-01-25T08:01:17.420Z,99.99
2017-01-25T08:02:17.437Z,99.99
2017-01-25T08:03:17.451Z,99.99
2017-01-25T08:04:17.465Z,99.99
2017-01-25T08:05:17.482Z,99.99
2017-01-25T08:06:17.496Z,99.99
2017-01-25T08:07:17.511Z,99.99
2017-01-25T08:08:17.529Z,99.99
2017-01-25T08:09:32.459Z,99.99
2017-01-25T08:10:17.556Z,99.99
2017-01-25T08:11:17.571Z,99.99
2017-01-25T08:12:17.585Z,99.99
2017-01-25T08:13:17.604Z,99.99
2017-01-25T08:14:17.618Z,99.99
2017-01-25T08:15:17.632Z,99.99
2017-01-25T08:16:17.647Z,99.99
2017-01-25T08:17:17.661Z,99.99
2017-01-25T08:18:17.678Z,99.99
2017-01-25T08:19:17.693Z,99.99
2017-01-25T08:21:17.725Z,99.99
2017-01-25T08:22:17.742Z,99.99
2017-01-25T08:23:17.757Z,99.99
2017-01-25T08:24:17.769Z,99.99
2017-01-25T08:25:17.786Z,99.99
2017-01-25T08:26:17.799Z,99.99
2017-01-25T08:27:17.816Z,99.99
2017-01-25T08:28:17.830Z,99.99
2017-01-25T08:29:17.844Z,99.99
2017-01-25T08:30:17.860Z,99.99
2017-01-25T08:31:17.875Z,99.99
2017-01-25T08:32:17.892Z,99.99
2017-01-25T08:33:17.909Z,99.99
2017-01-25T08:34:17.920Z,99.99
2017-01-25T08:35:17.937Z,99.99
2017-01-25T08:36:17.953Z,99.99
2017-01-25T08:37:17.966Z,99.99
2017-01-25T08:38:17.982Z,99.99
2017-01-25T08:39:17.998Z,99.99
2017-01-25T08:40:18.012Z,99.99
2017-01-25T08:41:32.945Z,99.99
2017-01-25T08:42:18.043Z,99.99
2017-01-25T08:43:18.058Z,99.99
2017-01-25T08:44:18.074Z,99.99
2017-01-25T08:45:18.088Z,99.99
2017-01-25T08:46:18.107Z,99.99
2017-01-25T08:47:18.145Z,99.99
2017-01-25T08:48:18.135Z,99.99
2017-01-25T08:49:18.151Z,99.99
2017-01-25T08:50:18.166Z,99.99
2017-01-25T08:51:18.179Z,99.99
2017-01-25T08:53:18.212Z,99.99
2017-01-25T08:54:18.225Z,99.99
2017-01-25T08:55:18.243Z,99.99
2017-01-25T08:56:18.257Z,99.99
2017-01-25T08:57:33.192Z,99.99
2017-01-25T08:58:18.290Z,99.99
2017-01-25T08:59:18.309Z,99.99
2017-01-25T09:00:18.320Z,99.99
2017-01-25T09:01:18.335Z,99.99
2017-01-25T09:02:18.348Z,99.99
2017-01-25T09:03:18.365Z,99.99
2017-01-25T09:04:18.768Z,99.99
2017-01-25T09:05:18.396Z,99.99
2017-01-25T09:06:18.410Z,99.99
2017-01-25T09:07:18.429Z,99.99
2017-01-25T09:08:18.442Z,99.99
2017-01-25T09:09:18.460Z,99.99
2017-01-25T09:11:18.487Z,99.99
2017-01-25T09:12:18.503Z,99.99
2017-01-25T09:13:33.437Z,99.99
2017-01-25T09:14:18.534Z,99.99
2017-01-25T09:15:18.552Z,99.99
2017-01-25T09:16:18.565Z,99.99
2017-01-25T09:17:18.585Z,99.9
2017-01-25T09:18:18.597Z,99.9
2017-01-25T09:19:18.613Z,99.99
2017-01-25T09:20:18.628Z,99.81
2017-01-25T09:21:18.643Z,99.99
2017-01-25T09:22:18.659Z,99.9
2017-01-25T09:23:18.675Z,99.99
2017-01-25T09:25:18.707Z,99.9
2017-01-25T09:26:18.738Z,99.99
2017-01-25T09:27:18.737Z,99.99
2017-01-25T09:28:18.752Z,99.99
2017-01-25T09:29:33.687Z,99.99
2017-01-25T09:30:18.783Z,99.99
2017-01-25T09:31:19.189Z,99.9
2017-01-25T09:32:18.814Z,99.24
2017-01-25T09:33:18.831Z,99.52
2017-01-25T09:34:18.844Z,99.9
2017-01-25T09:35:18.861Z,99.9
2017-01-25T09:36:18.878Z,99.9
2017-01-25T09:37:18.892Z,99.99
2017-01-25T09:38:18.909Z,99.99
2017-01-25T09:39:18.926Z,99.99
2017-01-25T09:40:18.943Z,99.99
2017-01-25T09:41:18.956Z,99.71
2017-01-25T09:42:18.973Z,99.81
2017-01-25T09:43:18.989Z,99.9
2017-01-25T09:44:33.921Z,99.52
2017-01-25T09:45:19.019Z,99.52
2017-01-25T09:46:19.035Z,99.62
2017-01-25T09:47:19.050Z,99.43
2017-01-25T09:48:19.068Z,99.52
2017-01-25T09:49:19.084Z,99.71
2017-01-25T09:50:19.097Z,99.81
2017-01-25T09:51:19.113Z,99.99
2017-01-25T09:52:19.130Z,99.9
2017-01-25T09:53:19.145Z,99.99
2017-01-25T09:54:19.160Z,99.99
2017-01-25T09:56:19.199Z,99.52
2017-01-25T09:57:19.210Z,99.71
2017-01-25T09:58:19.224Z,99.62
2017-01-25T09:59:19.239Z,99.9
2017-01-25T10:00:19.255Z,99.9
2017-01-25T10:01:19.270Z,99.81
2017-01-25T10:02:19.285Z,99.62
2017-01-25T10:03:19.303Z,99.52
2017-01-25T10:04:19.317Z,99.62
2017-01-25T10:05:19.334Z,99.52
2017-01-25T10:06:19.349Z,99.33
2017-01-25T10:07:19.364Z,99.62
2017-01-25T10:08:19.382Z,99.81
2017-01-25T10:09:19.396Z,99.9
2017-01-25T10:10:19.411Z,99.99
2017-01-25T10:13:19.459Z,99.99
2017-01-25T10:14:19.475Z,99.99
2017-01-25T10:15:19.490Z,99.81
2017-01-25T10:16:34.423Z,99.62
2017-01-25T10:17:19.521Z,99.9
2017-01-25T10:18:19.537Z,99.9
2017-01-25T10:19:19.575Z,99.43
2017-01-25T10:20:19.572Z,99.24
2017-01-25T10:21:19.584Z,99.52
2017-01-25T10:22:19.599Z,98.96
2017-01-25T10:23:19.616Z,99.15
2017-01-25T10:24:19.633Z,99.52
2017-01-25T10:26:19.662Z,99.52
2017-01-25T10:27:19.677Z,99.43
2017-01-25T10:28:19.695Z,99.33
2017-01-25T10:29:19.711Z,98.96
2017-01-25T10:30:19.726Z,98.68
2017-01-25T10:31:19.742Z,99.05
2017-01-25T10:32:34.675Z,98.96
2017-01-25T10:33:19.776Z,99.33
2017-01-25T10:34:19.789Z,99.43
2017-01-25T10:35:19.804Z,99.9
2017-01-25T10:36:19.821Z,99.9
2017-01-25T10:37:19.835Z,99.99
2017-01-25T10:38:19.852Z,99.99
2017-01-25T10:39:19.868Z,99.99
2017-01-25T10:40:19.884Z,99.99
2017-01-25T10:41:19.898Z,99.99
2017-01-25T10:42:19.913Z,99.99
2017-01-25T10:43:19.930Z,99.99
2017-01-25T10:44:19.949Z,99.9
2017-01-25T10:45:19.962Z,99.62
2017-01-25T10:46:19.981Z,99.99
2017-01-25T10:47:19.993Z,99.81
2017-01-25T10:48:34.926Z,99.9
2017-01-25T10:50:20.043Z,99.9
2017-01-25T10:51:20.057Z,99.52
2017-01-25T10:52:20.071Z,99.43
2017-01-25T10:53:20.087Z,98.96
2017-01-25T10:54:20.106Z,98.96
2017-01-25T10:55:20.119Z,98.86
2017-01-25T10:56:20.134Z,98.58
2017-01-25T10:57:20.151Z,98.49
2017-01-25T10:58:20.167Z,98.58
2017-01-25T11:00:20.198Z,98.86
2017-01-25T11:01:20.214Z,98.77
2017-01-25T11:02:20.230Z,98.39
2017-01-25T11:03:20.245Z,98.86
2017-01-25T11:04:35.229Z,98.06
2017-01-25T11:05:20.280Z,98.01
2017-01-25T11:06:20.293Z,97.68
2017-01-25T11:07:20.311Z,97.54
2017-01-25T11:08:20.326Z,97.73
2017-01-25T11:10:20.403Z,98.2
2017-01-25T11:11:20.373Z,97.63
2017-01-25T11:12:20.389Z,98.2
2017-01-25T11:14:20.430Z,98.35
2017-01-25T11:15:20.443Z,98.01
2017-01-25T11:17:20.521Z,97.54
2017-01-25T11:18:20.486Z,97.73
2017-01-25T11:19:35.421Z,98.11
2017-01-25T11:20:20.526Z,98.25
2017-01-25T11:21:20.537Z,97.78
2017-01-25T11:22:20.554Z,97.68
2017-01-25T11:23:20.569Z,97.78
2017-01-25T11:24:20.584Z,97.4
2017-01-25T11:25:20.599Z,97.97
2017-01-25T11:26:20.615Z,97.54
2017-01-25T11:27:20.630Z,97.82
2017-01-25T11:28:20.646Z,97.78
2017-01-25T11:29:20.666Z,97.44
2017-01-25T11:30:20.680Z,97.97
2017-01-25T11:31:20.696Z,97.49
2017-01-25T11:32:20.714Z,97.21
2017-01-25T11:33:20.730Z,97.3
2017-01-25T11:34:20.743Z,97.21
2017-01-25T11:35:20.761Z,97.4
2017-01-25T11:36:20.789Z,97.3
2017-01-25T11:37:20.790Z,97.59
2017-01-25T11:38:20.810Z,97.02
2017-01-25T11:39:20.825Z,97.35
2017-01-25T11:40:20.841Z,97.82
2017-01-25T11:41:20.857Z,97.63
2017-01-25T11:42:20.872Z,98.2
2017-01-25T11:43:20.888Z,98.11
2017-01-25T11:44:20.904Z,98.39
2017-01-25T11:45:20.922Z,98.68
2017-01-25T11:46:20.937Z,98.11
2017-01-25T11:48:20.970Z,98.86
2017-01-25T11:49:20.992Z,98.77
2017-01-25T11:50:21.004Z,98.96
2017-01-25T11:51:35.935Z,98.86
2017-01-25T11:52:21.034Z,98.68
2017-01-25T11:53:21.052Z,98.39
2017-01-25T11:54:21.066Z,98.2
2017-01-25T11:55:21.084Z,98.49
2017-01-25T11:56:21.099Z,98.01
2017-01-25T11:57:21.114Z,98.39
2017-01-25T11:58:21.132Z,98.2
2017-01-25T11:59:21.147Z,98.77
2017-01-25T12:00:21.168Z,98.39
2017-01-25T12:01:21.178Z,98.58
2017-01-25T12:02:21.193Z,98.39
2017-01-25T12:03:21.211Z,98.49
2017-01-25T12:04:21.228Z,98.2
2017-01-25T12:05:21.245Z,98.49
2017-01-25T12:06:21.262Z,98.58
2017-01-25T12:07:36.194Z,98.77
2017-01-25T12:08:21.291Z,98.68
2017-01-25T12:09:21.306Z,98.91
2017-01-25T12:10:21.324Z,98.68
2017-01-25T12:11:21.344Z,98.2
2017-01-25T12:12:21.356Z,98.68
2017-01-25T12:13:21.383Z,98.25
2017-01-25T12:14:21.390Z,98.16
2017-01-25T12:15:21.404Z,98.44
2017-01-25T12:16:21.420Z,98.01
2017-01-25T12:18:21.455Z,98.16
2017-01-25T12:20:21.485Z,98.01
2017-01-25T12:21:21.500Z,98.01
2017-01-25T12:22:21.518Z,98.39
2017-01-25T12:23:36.450Z,98.58
2017-01-25T12:24:21.549Z,98.58
2017-01-25T12:25:21.565Z,98.2
2017-01-25T12:26:21.580Z,98.3
2017-01-25T12:27:21.598Z,98.3
2017-01-25T12:28:21.613Z,98.54
2017-01-25T12:29:21.629Z,98.16
2017-01-25T12:30:21.645Z,97.87
2017-01-25T12:31:21.662Z,98.2
2017-01-25T12:32:21.677Z,98.11
2017-01-25T12:33:21.695Z,98.25
2017-01-25T12:34:21.717Z,98.11
2017-01-25T12:35:21.726Z,98.68
2017-01-25T12:36:21.744Z,98.39
2017-01-25T12:37:21.760Z,98.68
2017-01-25T12:38:21.774Z,98.39
2017-01-25T12:39:36.708Z,98.39
2017-01-25T12:40:21.806Z,98.06
2017-01-25T12:41:21.825Z,98.2
2017-01-25T12:42:21.838Z,98.39
2017-01-25T12:43:21.854Z,98.86
2017-01-25T12:44:21.872Z,99.05
2017-01-25T12:45:21.887Z,98.96
2017-01-25T12:46:21.902Z,98.68
2017-01-25T12:47:21.918Z,98.86
2017-01-25T12:48:21.935Z,98.96
2017-01-25T12:49:21.949Z,98.68
2017-01-25T12:52:22.003Z,99.52
2017-01-25T12:53:22.015Z,99.33
2017-01-25T12:54:36.951Z,99.52
2017-01-25T12:55:22.049Z,99.9
2017-01-25T12:56:22.065Z,99.15
2017-01-25T12:57:22.080Z,99.15
2017-01-25T12:58:22.102Z,98.49
2017-01-25T12:59:22.113Z,98.96
2017-01-25T13:00:22.128Z,98.77
2017-01-25T13:01:22.144Z,99.15
2017-01-25T13:02:22.162Z,98.82
2017-01-25T13:03:22.176Z,99.29
2017-01-25T13:04:22.194Z,98.44
2017-01-25T13:06:22.226Z,98.35
2017-01-25T13:08:22.259Z,99.15
2017-01-25T13:09:22.276Z,99.24
2017-01-25T13:10:22.290Z,99.24
2017-01-25T13:11:22.306Z,99.29
2017-01-25T13:12:22.322Z,98.25
2017-01-25T13:13:22.340Z,98.49
2017-01-25T13:14:22.355Z,98.49
2017-01-25T13:15:22.372Z,98.96
2017-01-25T13:16:22.386Z,98.96
2017-01-25T13:17:22.407Z,98.58
2017-01-25T13:18:22.442Z,99.15
2017-01-25T13:19:22.434Z,98.96
2017-01-25T13:22:22.484Z,98.77
2017-01-25T13:23:22.501Z,98.49
2017-01-25T13:24:22.518Z,98.49
2017-01-25T13:25:22.531Z,98.49
2017-01-25T13:26:37.466Z,99.1
2017-01-25T13:27:22.564Z,99.33
2017-01-25T13:28:22.581Z,98.68
2017-01-25T13:29:22.599Z,98.96
2017-01-25T13:30:22.612Z,99.62
2017-01-25T13:31:22.628Z,99.33
2017-01-25T13:32:22.647Z,98.96
2017-01-25T13:33:22.661Z,99.33
2017-01-25T13:34:22.677Z,99.43
2017-01-25T13:36:22.709Z,99.52
2017-01-25T13:37:22.730Z,99.43
2017-01-25T13:38:22.742Z,99.71
2017-01-25T13:39:22.763Z,98.96
2017-01-25T13:40:22.774Z,99.43
2017-01-25T13:41:22.792Z,99.33
2017-01-25T13:42:37.725Z,99.05
2017-01-25T13:43:22.826Z,98.86
2017-01-25T13:44:22.839Z,99.43
2017-01-25T13:45:22.856Z,99.52
2017-01-25T13:46:22.871Z,99.05
2017-01-25T13:47:22.889Z,98.96